Mayfield Heights, OH (44124)

7:30 AM EDT on September 16, 2014 (GMT -0400)
Buckeye Woodhill | Change Station
CLOSE
Current Station
Personal Weather Station
Location: Cleveland, OH
Elevation: 768 ft
Nearby Weather Stations

Elev 768 ft 41.48 °N, 81.62 °W | Updated 54 seconds ago

Rain
Rain
54.9 °F
Feels Like 54.9 °F
N
2.0
Wind Variable Wind from South
Gusts 2.0 mph

Today
High -- | Low -- °F
--% Chance of Precip.
Yesterday
High -- | Low -- °F
Precip. -- in
7:07 AM 7:34 PM
Last Quarter, 46% visible
Pressure 30.09 in
Visibility 10.0 miles
Clouds Scattered Clouds 2400 ft
Overcast 4300 ft
Dew Point 54 °F
Humidity 96%
Rainfall 0.05 in
Snow Depth Not available.
UV 0 out of 12
Pollen 2.10 out of 12
Ozone Good
PM2.5 Good
Flu Activity Not available.
METAR KBKL 161053Z 34008KT 10SM SCT024 OVC043 15/11 A3009 RMK AO2 SLP190 T01500111

More Conditions Fewer Conditions

Pressure 30.09 in
Visibility 10.0 miles
Clouds Scattered Clouds 2400 ft
Overcast 4300 ft
Dew Point 54 °F
Humidity 96%
Rainfall 0.05 in
Snow Depth Not available.
UV 0 out of 12
Pollen 2.10 out of 12
Ozone Good
PM2.5 Good
Flu Activity Not available.
METAR KBKL 161053Z 34008KT 10SM SCT024 OVC043 15/11 A3009 RMK AO2 SLP190 T01500111

More Conditions Fewer Conditions

10-Day Weather Forecast

Almanac

Astronomy

Sep. 16, 2014 Rise Set
Actual Time 7:07 AM EDT 7:34 PM EDT
Civil Twilight 6:40 AM EDT 8:01 PM EDT
Nautical Twilight 6:07 AM EDT 8:34 PM EDT
Astronomical Twilight 5:33 AM EDT 9:08 PM EDT
Moon 12:13 AM EDT 2:59 PM EDT
Length of Visible Light 13h 21m
Length of Day
12h 26m
Tomorrow will be 2m 45s shorter.
Last Quarter, 46% of the Moon is Illuminated
Today
Last Quarter
Sep 24
New
Oct 1
First Quarter
Oct 8
Full
Oct 15
Last Quarter

Today's Extremes

State Highs State Lows

Community

WunderPhotos

Upload Photos

1,753,724 photos uploaded!

WunderBlogs® & News

By Dr. Jeff Masters
Director of Meteorology, Weather Underground
By Kari Strenfel
Meteorologist, Weather Underground
By Christopher C. Burt
Weather Historian, Weather Underground
September 16, 2014
September 16, 2014
September 16, 2014

Nearby

Air Quality

  Air Quality AQ Index Pollutant
Yesterday Good
PM10
Yesterday Good
OZONE
Current Good
PM2.5
Current Good
OZONE
Tuesday Good
PM2.5
Tuesday Good
OZONE
Wednesday Good
PM2.5
Wednesday Good
OZONE
Thursday Moderate
PM2.5
Thursday Good
OZONE
Friday Moderate
PM2.5
Friday Good
OZONE

Snow Depth

Station Depth Elevation
No new snow has been reported.

Earthquake Activity

City Distance Mag. Time & Date
No recent earthquake activity has been reported nearby.
Minimum magnitude displayed is 2.5.

Coastal Water Temperatures

Place Temperature
Cleveland, OH 66.9 °F
Fairport, OH 64.9 °F

Nearby Weather Stations